sensor_id;sensor_type;location;lat;lon;timestamp;temperature;humidity
21508;DHT22;10915;54.352;9.074;2023-07-13T00:02:21;15.60;99.90
21508;DHT22;10915;54.352;9.074;2023-07-13T00:04:47;15.50;99.90
21508;DHT22;10915;54.352;9.074;2023-07-13T00:07:13;15.50;99.90
21508;DHT22;10915;54.352;9.074;2023-07-13T00:09:40;15.50;99.90
21508;DHT22;10915;54.352;9.074;2023-07-13T00:12:28;15.50;99.90
21508;DHT22;10915;54.352;9.074;2023-07-13T00:14:56;15.50;99.90
21508;DHT22;10915;54.352;9.074;2023-07-13T00:17:23;15.50;99.90
21508;DHT22;10915;54.352;9.074;2023-07-13T00:19:48;15.60;99.90
21508;DHT22;10915;54.352;9.074;2023-07-13T00:22:14;15.60;99.90
21508;DHT22;10915;54.352;9.074;2023-07-13T00:24:40;15.70;99.90
21508;DHT22;10915;54.352;9.074;2023-07-13T00:27:08;15.70;99.90
21508;DHT22;10915;54.352;9.074;2023-07-13T00:29:34;15.80;99.90
21508;DHT22;10915;54.352;9.074;2023-07-13T00:31:59;15.80;99.90
21508;DHT22;10915;54.352;9.074;2023-07-13T00:34:25;15.80;99.90
21508;DHT22;10915;54.352;9.074;2023-07-13T00:36:51;15.80;99.90
21508;DHT22;10915;54.352;9.074;2023-07-13T00:39:17;15.90;99.90
21508;DHT22;10915;54.352;9.074;2023-07-13T00:41:42;15.90;99.90
21508;DHT22;10915;54.352;9.074;2023-07-13T00:44:14;15.90;99.90
21508;DHT22;10915;54.352;9.074;2023-07-13T00:46:40;16.00;99.90
21508;DHT22;10915;54.352;9.074;2023-07-13T00:49:08;16.00;99.90
21508;DHT22;10915;54.352;9.074;2023-07-13T00:51:43;15.90;99.90
21508;DHT22;10915;54.352;9.074;2023-07-13T00:56:45;16.00;99.90
21508;DHT22;10915;54.352;9.074;2023-07-13T00:59:13;16.00;99.90
21508;DHT22;10915;54.352;9.074;2023-07-13T01:01:43;15.90;99.90
21508;DHT22;10915;54.352;9.074;2023-07-13T01:04:10;15.90;99.90
21508;DHT22;10915;54.352;9.074;2023-07-13T01:06:47;15.90;99.90
21508;DHT22;10915;54.352;9.074;2023-07-13T01:16:11;15.80;99.90
21508;DHT22;10915;54.352;9.074;2023-07-13T01:18:50;15.80;99.90
21508;DHT22;10915;54.352;9.074;2023-07-13T01:31:16;15.70;99.90
21508;DHT22;10915;54.352;9.074;2023-07-13T01:34:13;15.70;99.90
21508;DHT22;10915;54.352;9.074;2023-07-13T01:36:42;15.70;99.90
21508;DHT22;10915;54.352;9.074;2023-07-13T01:39:34;15.70;99.90
21508;DHT22;10915;54.352;9.074;2023-07-13T01:42:04;15.80;99.90
21508;DHT22;10915;54.352;9.074;2023-07-13T01:51:12;15.70;99.90
21508;DHT22;10915;54.352;9.074;2023-07-13T02:01:13;15.70;99.90
21508;DHT22;10915;54.352;9.074;2023-07-13T02:04:28;15.70;99.90
21508;DHT22;10915;54.352;9.074;2023-07-13T02:10:31;15.70;99.90
21508;DHT22;10915;54.352;9.074;2023-07-13T02:43:34;15.60;99.90
21508;DHT22;10915;54.352;9.074;2023-07-13T02:46:01;15.60;99.90
21508;DHT22;10915;54.352;9.074;2023-07-13T02:49:05;15.60;99.90
21508;DHT22;10915;54.352;9.074;2023-07-13T02:58:32;15.60;99.90
21508;DHT22;10915;54.352;9.074;2023-07-13T03:01:14;15.60;99.90
21508;DHT22;10915;54.352;9.074;2023-07-13T03:07:15;15.60;99.90
21508;DHT22;10915;54.352;9.074;2023-07-13T03:09:41;15.60;99.90
21508;DHT22;10915;54.352;9.074;2023-07-13T03:18:09;15.70;99.90
21508;DHT22;10915;54.352;9.074;2023-07-13T03:27:15;15.70;99.90
21508;DHT22;10915;54.352;9.074;2023-07-13T03:30:12;15.80;99.90
21508;DHT22;10915;54.352;9.074;2023-07-13T03:39:55;16.00;99.90
21508;DHT22;10915;54.352;9.074;2023-07-13T03:45:04;16.10;99.90
21508;DHT22;10915;54.352;9.074;2023-07-13T03:48:02;16.10;99.90
21508;DHT22;10915;54.352;9.074;2023-07-13T03:51:06;16.20;99.90
21508;DHT22;10915;54.352;9.074;2023-07-13T03:56:49;16.30;99.90
21508;DHT22;10915;54.352;9.074;2023-07-13T03:59:54;16.40;99.90
21508;DHT22;10915;54.352;9.074;2023-07-13T04:02:44;16.40;99.90
21508;DHT22;10915;54.352;9.074;2023-07-13T04:08:55;16.60;99.90
21508;DHT22;10915;54.352;9.074;2023-07-13T04:11:40;16.60;99.90
21508;DHT22;10915;54.352;9.074;2023-07-13T04:14:33;16.60;99.90
21508;DHT22;10915;54.352;9.074;2023-07-13T04:17:29;16.60;99.90
21508;DHT22;10915;54.352;9.074;2023-07-13T04:19:55;16.50;99.90
21508;DHT22;10915;54.352;9.074;2023-07-13T04:35:17;16.00;99.90
21508;DHT22;10915;54.352;9.074;2023-07-13T04:37:52;16.00;99.90
21508;DHT22;10915;54.352;9.074;2023-07-13T04:40:47;15.90;99.90
21508;DHT22;10915;54.352;9.074;2023-07-13T04:43:19;15.90;99.90
21508;DHT22;10915;54.352;9.074;2023-07-13T04:45:54;15.90;99.90
21508;DHT22;10915;54.352;9.074;2023-07-13T04:48:39;15.90;99.90
21508;DHT22;10915;54.352;9.074;2023-07-13T04:51:14;15.90;99.90
21508;DHT22;10915;54.352;9.074;2023-07-13T04:57:28;15.80;99.90
21508;DHT22;10915;54.352;9.074;2023-07-13T05:03:36;15.80;99.90
21508;DHT22;10915;54.352;9.074;2023-07-13T05:43:17;17.10;99.90
21508;DHT22;10915;54.352;9.074;2023-07-13T05:46:33;17.20;99.90
21508;DHT22;10915;54.352;9.074;2023-07-13T05:49:02;17.30;99.90
21508;DHT22;10915;54.352;9.074;2023-07-13T05:56:55;17.50;99.90
21508;DHT22;10915;54.352;9.074;2023-07-13T05:59:24;17.60;99.90
21508;DHT22;10915;54.352;9.074;2023-07-13T06:01:50;17.60;99.90
21508;DHT22;10915;54.352;9.074;2023-07-13T06:04:18;17.50;99.90
21508;DHT22;10915;54.352;9.074;2023-07-13T06:06:46;17.50;99.90
21508;DHT22;10915;54.352;9.074;2023-07-13T06:09:15;17.60;99.90
21508;DHT22;10915;54.352;9.074;2023-07-13T06:11:41;17.60;99.90
21508;DHT22;10915;54.352;9.074;2023-07-13T06:14:09;17.70;99.90
21508;DHT22;10915;54.352;9.074;2023-07-13T06:16:40;17.70;99.90
21508;DHT22;10915;54.352;9.074;2023-07-13T06:19:06;17.70;99.90
21508;DHT22;10915;54.352;9.074;2023-07-13T06:21:38;17.70;99.90
21508;DHT22;10915;54.352;9.074;2023-07-13T06:24:16;17.70;99.90
21508;DHT22;10915;54.352;9.074;2023-07-13T06:26:47;17.60;99.90
21508;DHT22;10915;54.352;9.074;2023-07-13T06:29:38;17.70;99.90
21508;DHT22;10915;54.352;9.074;2023-07-13T06:32:27;17.70;99.90
21508;DHT22;10915;54.352;9.074;2023-07-13T06:42:13;17.90;99.90
21508;DHT22;10915;54.352;9.074;2023-07-13T06:44:38;17.90;99.90
21508;DHT22;10915;54.352;9.074;2023-07-13T06:47:06;18.00;99.90
21508;DHT22;10915;54.352;9.074;2023-07-13T06:49:32;18.10;99.90
21508;DHT22;10915;54.352;9.074;2023-07-13T06:52:17;18.20;99.90
21508;DHT22;10915;54.352;9.074;2023-07-13T06:54:43;18.30;99.90
21508;DHT22;10915;54.352;9.074;2023-07-13T06:57:39;18.50;99.90
21508;DHT22;10915;54.352;9.074;2023-07-13T07:00:23;18.60;99.90
21508;DHT22;10915;54.352;9.074;2023-07-13T07:02:57;18.70;99.90
21508;DHT22;10915;54.352;9.074;2023-07-13T07:05:41;18.80;99.90
21508;DHT22;10915;54.352;9.074;2023-07-13T07:08:30;18.90;99.90
21508;DHT22;10915;54.352;9.074;2023-07-13T07:11:17;19.00;99.90
21508;DHT22;10915;54.352;9.074;2023-07-13T07:13:56;19.10;99.90
21508;DHT22;10915;54.352;9.074;2023-07-13T07:16:25;19.10;99.90
21508;DHT22;10915;54.352;9.074;2023-07-13T07:18:57;19.20;99.90
21508;DHT22;10915;54.352;9.074;2023-07-13T07:21:33;19.20;99.90
21508;DHT22;10915;54.352;9.074;2023-07-13T07:23:59;19.20;99.90
21508;DHT22;10915;54.352;9.074;2023-07-13T07:26:50;19.30;99.90
21508;DHT22;10915;54.352;9.074;2023-07-13T07:29:34;19.40;99.90
21508;DHT22;10915;54.352;9.074;2023-07-13T07:32:08;19.40;99.90
21508;DHT22;10915;54.352;9.074;2023-07-13T07:34:34;19.50;99.90
21508;DHT22;10915;54.352;9.074;2023-07-13T07:37:01;19.50;99.90
21508;DHT22;10915;54.352;9.074;2023-07-13T07:39:26;19.60;99.90
21508;DHT22;10915;54.352;9.074;2023-07-13T07:41:53;19.60;99.90
21508;DHT22;10915;54.352;9.074;2023-07-13T07:44:18;19.70;99.90
21508;DHT22;10915;54.352;9.074;2023-07-13T07:46:44;19.70;99.90
21508;DHT22;10915;54.352;9.074;2023-07-13T07:49:10;19.70;99.90
21508;DHT22;10915;54.352;9.074;2023-07-13T07:51:36;19.70;99.90
21508;DHT22;10915;54.352;9.074;2023-07-13T07:54:02;19.70;99.90
21508;DHT22;10915;54.352;9.074;2023-07-13T07:56:28;19.70;99.90
21508;DHT22;10915;54.352;9.074;2023-07-13T07:58:54;19.80;99.90
21508;DHT22;10915;54.352;9.074;2023-07-13T08:01:19;19.90;99.90
21508;DHT22;10915;54.352;9.074;2023-07-13T08:03:45;19.90;99.90
21508;DHT22;10915;54.352;9.074;2023-07-13T08:06:11;20.10;99.90
21508;DHT22;10915;54.352;9.074;2023-07-13T08:08:36;20.20;99.90
21508;DHT22;10915;54.352;9.074;2023-07-13T08:11:04;20.30;99.90
21508;DHT22;10915;54.352;9.074;2023-07-13T08:13:29;20.40;99.90
21508;DHT22;10915;54.352;9.074;2023-07-13T08:15:55;20.70;99.90
21508;DHT22;10915;54.352;9.074;2023-07-13T08:18:21;20.80;99.90
21508;DHT22;10915;54.352;9.074;2023-07-13T08:20:46;21.20;99.90
21508;DHT22;10915;54.352;9.074;2023-07-13T08:23:12;21.40;99.90
21508;DHT22;10915;54.352;9.074;2023-07-13T08:25:38;21.60;99.90
21508;DHT22;10915;54.352;9.074;2023-07-13T08:28:04;21.90;99.90
21508;DHT22;10915;54.352;9.074;2023-07-13T08:30:30;21.90;99.90
21508;DHT22;10915;54.352;9.074;2023-07-13T08:32:55;21.90;99.90
21508;DHT22;10915;54.352;9.074;2023-07-13T08:35:21;22.00;99.90
21508;DHT22;10915;54.352;9.074;2023-07-13T08:37:47;22.00;99.90
21508;DHT22;10915;54.352;9.074;2023-07-13T08:40:13;22.00;99.90
21508;DHT22;10915;54.352;9.074;2023-07-13T08:45:21;21.70;99.90
21508;DHT22;10915;54.352;9.074;2023-07-13T08:48:00;21.60;99.90
21508;DHT22;10915;54.352;9.074;2023-07-13T08:50:38;21.50;99.90
21508;DHT22;10915;54.352;9.074;2023-07-13T08:53:07;21.50;99.90
21508;DHT22;10915;54.352;9.074;2023-07-13T08:55:36;21.50;99.90
21508;DHT22;10915;54.352;9.074;2023-07-13T08:58:15;21.40;99.90
21508;DHT22;10915;54.352;9.074;2023-07-13T09:00:48;21.50;99.90
21508;DHT22;10915;54.352;9.074;2023-07-13T09:03:23;21.50;99.90
21508;DHT22;10915;54.352;9.074;2023-07-13T09:05:56;21.40;99.90
21508;DHT22;10915;54.352;9.074;2023-07-13T09:11:33;21.30;99.90
21508;DHT22;10915;54.352;9.074;2023-07-13T09:14:20;21.20;99.90
21508;DHT22;10915;54.352;9.074;2023-07-13T09:16:51;21.30;99.90
21508;DHT22;10915;54.352;9.074;2023-07-13T09:19:25;21.50;99.90
21508;DHT22;10915;54.352;9.074;2023-07-13T09:21:53;21.70;99.90
21508;DHT22;10915;54.352;9.074;2023-07-13T09:27:19;22.10;99.90
21508;DHT22;10915;54.352;9.074;2023-07-13T09:29:50;22.10;99.90
21508;DHT22;10915;54.352;9.074;2023-07-13T09:32:21;22.30;99.90
21508;DHT22;10915;54.352;9.074;2023-07-13T09:34:51;22.40;99.90
21508;DHT22;10915;54.352;9.074;2023-07-13T09:37:18;22.40;99.90
21508;DHT22;10915;54.352;9.074;2023-07-13T09:39:44;22.60;99.90
21508;DHT22;10915;54.352;9.074;2023-07-13T09:44:39;22.90;99.90
21508;DHT22;10915;54.352;9.074;2023-07-13T09:47:24;23.10;99.90
21508;DHT22;10915;54.352;9.074;2023-07-13T09:50:15;23.20;99.90
21508;DHT22;10915;54.352;9.074;2023-07-13T09:52:46;23.50;99.90
21508;DHT22;10915;54.352;9.074;2023-07-13T09:55:28;23.70;99.90
21508;DHT22;10915;54.352;9.074;2023-07-13T09:57:54;24.00;99.90
21508;DHT22;10915;54.352;9.074;2023-07-13T10:00:26;24.20;99.90
21508;DHT22;10915;54.352;9.074;2023-07-13T10:02:59;24.60;99.90
21508;DHT22;10915;54.352;9.074;2023-07-13T10:05:25;24.70;99.90
21508;DHT22;10915;54.352;9.074;2023-07-13T10:07:51;24.60;99.90
21508;DHT22;10915;54.352;9.074;2023-07-13T10:10:21;24.40;99.90
21508;DHT22;10915;54.352;9.074;2023-07-13T10:12:49;24.20;99.90
21508;DHT22;10915;54.352;9.074;2023-07-13T10:15:18;24.00;99.90
21508;DHT22;10915;54.352;9.074;2023-07-13T10:17:45;23.80;99.90
21508;DHT22;10915;54.352;9.074;2023-07-13T10:20:11;23.70;99.90
21508;DHT22;10915;54.352;9.074;2023-07-13T10:23:00;23.60;99.90
21508;DHT22;10915;54.352;9.074;2023-07-13T10:25:34;23.60;99.90
21508;DHT22;10915;54.352;9.074;2023-07-13T10:28:30;23.60;99.90
21508;DHT22;10915;54.352;9.074;2023-07-13T10:30:59;23.50;99.90
21508;DHT22;10915;54.352;9.074;2023-07-13T10:33:26;23.40;99.90
21508;DHT22;10915;54.352;9.074;2023-07-13T10:35:59;23.40;99.90
21508;DHT22;10915;54.352;9.074;2023-07-13T10:38:27;23.60;99.90
21508;DHT22;10915;54.352;9.074;2023-07-13T10:40:58;23.80;99.90
21508;DHT22;10915;54.352;9.074;2023-07-13T10:44:02;23.70;99.90
21508;DHT22;10915;54.352;9.074;2023-07-13T10:46:24;23.80;99.90
21508;DHT22;10915;54.352;9.074;2023-07-13T10:49:04;23.90;99.90
21508;DHT22;10915;54.352;9.074;2023-07-13T10:51:30;24.00;99.90
21508;DHT22;10915;54.352;9.074;2023-07-13T10:54:19;24.10;99.90
21508;DHT22;10915;54.352;9.074;2023-07-13T10:56:49;24.20;99.90
21508;DHT22;10915;54.352;9.074;2023-07-13T10:59:18;24.40;99.90
21508;DHT22;10915;54.352;9.074;2023-07-13T11:01:57;24.40;99.90
21508;DHT22;10915;54.352;9.074;2023-07-13T11:04:25;24.40;99.90
21508;DHT22;10915;54.352;9.074;2023-07-13T11:06:57;24.40;99.90
21508;DHT22;10915;54.352;9.074;2023-07-13T11:09:38;24.30;99.90
21508;DHT22;10915;54.352;9.074;2023-07-13T11:12:26;24.10;99.90
21508;DHT22;10915;54.352;9.074;2023-07-13T11:25:31;24.70;99.90
21508;DHT22;10915;54.352;9.074;2023-07-13T11:28:23;24.60;99.90
21508;DHT22;10915;54.352;9.074;2023-07-13T11:36:06;24.60;99.90
21508;DHT22;10915;54.352;9.074;2023-07-13T11:38:44;24.80;99.90
21508;DHT22;10915;54.352;9.074;2023-07-13T11:41:15;24.90;99.90
21508;DHT22;10915;54.352;9.074;2023-07-13T11:43:41;24.80;99.90
21508;DHT22;10915;54.352;9.074;2023-07-13T11:46:21;24.50;99.90
21508;DHT22;10915;54.352;9.074;2023-07-13T11:48:48;24.30;99.90
21508;DHT22;10915;54.352;9.074;2023-07-13T11:51:23;24.10;99.90
21508;DHT22;10915;54.352;9.074;2023-07-13T11:53:52;24.00;99.90
21508;DHT22;10915;54.352;9.074;2023-07-13T11:56:18;24.00;99.90
21508;DHT22;10915;54.352;9.074;2023-07-13T11:58:47;24.00;99.90
21508;DHT22;10915;54.352;9.074;2023-07-13T12:01:22;24.10;99.90
21508;DHT22;10915;54.352;9.074;2023-07-13T12:03:50;24.00;99.90
21508;DHT22;10915;54.352;9.074;2023-07-13T12:06:35;23.90;99.90
21508;DHT22;10915;54.352;9.074;2023-07-13T12:09:14;23.80;99.90
21508;DHT22;10915;54.352;9.074;2023-07-13T12:11:43;23.80;99.90
21508;DHT22;10915;54.352;9.074;2023-07-13T12:14:16;23.70;99.90
21508;DHT22;10915;54.352;9.074;2023-07-13T12:16:43;23.70;99.90
21508;DHT22;10915;54.352;9.074;2023-07-13T12:19:28;23.80;99.90
21508;DHT22;10915;54.352;9.074;2023-07-13T12:21:57;24.00;99.90
21508;DHT22;10915;54.352;9.074;2023-07-13T12:24:23;23.90;99.90
21508;DHT22;10915;54.352;9.074;2023-07-13T12:27:01;23.80;99.90
21508;DHT22;10915;54.352;9.074;2023-07-13T12:29:27;23.70;99.90
21508;DHT22;10915;54.352;9.074;2023-07-13T12:31:53;23.70;99.90
21508;DHT22;10915;54.352;9.074;2023-07-13T12:34:23;23.60;99.90
21508;DHT22;10915;54.352;9.074;2023-07-13T12:37:00;23.50;99.90
21508;DHT22;10915;54.352;9.074;2023-07-13T12:39:46;23.60;99.90
21508;DHT22;10915;54.352;9.074;2023-07-13T12:42:31;23.70;99.90
21508;DHT22;10915;54.352;9.074;2023-07-13T12:47:43;23.30;99.90
21508;DHT22;10915;54.352;9.074;2023-07-13T12:50:16;23.20;99.90
21508;DHT22;10915;54.352;9.074;2023-07-13T12:52:43;23.10;99.90
21508;DHT22;10915;54.352;9.074;2023-07-13T12:55:17;23.00;99.90
21508;DHT22;10915;54.352;9.074;2023-07-13T12:57:55;22.90;99.90
21508;DHT22;10915;54.352;9.074;2023-07-13T13:00:31;22.80;99.90
21508;DHT22;10915;54.352;9.074;2023-07-13T13:03:18;22.80;99.90
21508;DHT22;10915;54.352;9.074;2023-07-13T13:05:45;22.70;99.90
21508;DHT22;10915;54.352;9.074;2023-07-13T13:08:11;22.70;99.90
21508;DHT22;10915;54.352;9.074;2023-07-13T13:10:37;22.70;99.90
21508;DHT22;10915;54.352;9.074;2023-07-13T13:13:03;22.70;99.90
21508;DHT22;10915;54.352;9.074;2023-07-13T13:15:29;22.70;99.90
21508;DHT22;10915;54.352;9.074;2023-07-13T13:17:55;22.60;99.90
21508;DHT22;10915;54.352;9.074;2023-07-13T13:20:22;22.60;99.90
21508;DHT22;10915;54.352;9.074;2023-07-13T13:22:48;22.70;99.90
21508;DHT22;10915;54.352;9.074;2023-07-13T13:25:15;22.90;99.90
21508;DHT22;10915;54.352;9.074;2023-07-13T13:27:41;23.00;99.90
21508;DHT22;10915;54.352;9.074;2023-07-13T13:30:11;23.20;99.90
21508;DHT22;10915;54.352;9.074;2023-07-13T13:32:39;23.20;99.90
21508;DHT22;10915;54.352;9.074;2023-07-13T13:35:05;23.20;99.90
21508;DHT22;10915;54.352;9.074;2023-07-13T13:42:42;23.80;99.90
21508;DHT22;10915;54.352;9.074;2023-07-13T13:45:10;24.00;99.90
21508;DHT22;10915;54.352;9.074;2023-07-13T13:47:38;24.20;99.90
21508;DHT22;10915;54.352;9.074;2023-07-13T13:50:17;24.30;99.90
21508;DHT22;10915;54.352;9.074;2023-07-13T13:53:09;24.10;99.90
21508;DHT22;10915;54.352;9.074;2023-07-13T13:55:44;24.00;99.90
21508;DHT22;10915;54.352;9.074;2023-07-13T13:58:10;24.00;99.90
21508;DHT22;10915;54.352;9.074;2023-07-13T14:00:41;24.00;99.90
21508;DHT22;10915;54.352;9.074;2023-07-13T14:03:16;24.10;99.90
21508;DHT22;10915;54.352;9.074;2023-07-13T14:05:45;24.30;99.90
21508;DHT22;10915;54.352;9.074;2023-07-13T14:08:21;24.40;99.90
21508;DHT22;10915;54.352;9.074;2023-07-13T14:10:51;24.40;99.90
21508;DHT22;10915;54.352;9.074;2023-07-13T14:13:21;24.20;99.90
21508;DHT22;10915;54.352;9.074;2023-07-13T14:15:47;24.10;99.90
21508;DHT22;10915;54.352;9.074;2023-07-13T14:18:14;24.00;99.90
21508;DHT22;10915;54.352;9.074;2023-07-13T14:20:45;24.10;99.90
21508;DHT22;10915;54.352;9.074;2023-07-13T14:23:32;24.20;99.90
21508;DHT22;10915;54.352;9.074;2023-07-13T14:26:18;24.40;99.90
21508;DHT22;10915;54.352;9.074;2023-07-13T14:28:53;24.40;99.90
21508;DHT22;10915;54.352;9.074;2023-07-13T14:31:28;24.20;99.90
21508;DHT22;10915;54.352;9.074;2023-07-13T14:33:57;24.20;99.90
21508;DHT22;10915;54.352;9.074;2023-07-13T14:36:31;24.10;99.90
21508;DHT22;10915;54.352;9.074;2023-07-13T14:39:10;24.20;99.90
21508;DHT22;10915;54.352;9.074;2023-07-13T14:41:37;24.20;99.90
21508;DHT22;10915;54.352;9.074;2023-07-13T14:44:11;24.10;99.90
21508;DHT22;10915;54.352;9.074;2023-07-13T14:46:40;24.00;99.90
21508;DHT22;10915;54.352;9.074;2023-07-13T14:49:30;24.00;99.90
21508;DHT22;10915;54.352;9.074;2023-07-13T14:52:17;24.00;99.90
21508;DHT22;10915;54.352;9.074;2023-07-13T14:54:44;24.00;99.90
21508;DHT22;10915;54.352;9.074;2023-07-13T14:57:16;23.90;99.90
21508;DHT22;10915;54.352;9.074;2023-07-13T14:59:46;23.80;99.90
21508;DHT22;10915;54.352;9.074;2023-07-13T15:02:35;23.70;99.90
21508;DHT22;10915;54.352;9.074;2023-07-13T15:05:22;23.80;99.90
21508;DHT22;10915;54.352;9.074;2023-07-13T15:07:53;23.80;99.90
21508;DHT22;10915;54.352;9.074;2023-07-13T15:10:22;23.90;99.90
21508;DHT22;10915;54.352;9.074;2023-07-13T15:12:51;24.00;99.90
21508;DHT22;10915;54.352;9.074;2023-07-13T15:15:28;24.00;99.90
21508;DHT22;10915;54.352;9.074;2023-07-13T15:18:02;24.10;99.90
21508;DHT22;10915;54.352;9.074;2023-07-13T15:20:31;24.10;99.90
21508;DHT22;10915;54.352;9.074;2023-07-13T15:26:31;24.00;99.90
21508;DHT22;10915;54.352;9.074;2023-07-13T15:29:04;23.80;99.90
21508;DHT22;10915;54.352;9.074;2023-07-13T15:31:30;23.70;99.90
21508;DHT22;10915;54.352;9.074;2023-07-13T15:33:57;23.60;99.90
21508;DHT22;10915;54.352;9.074;2023-07-13T15:36:29;23.50;99.90
21508;DHT22;10915;54.352;9.074;2023-07-13T15:38:59;23.60;99.90
21508;DHT22;10915;54.352;9.074;2023-07-13T15:41:54;23.60;99.90
21508;DHT22;10915;54.352;9.074;2023-07-13T15:44:31;23.60;99.90
21508;DHT22;10915;54.352;9.074;2023-07-13T15:47:00;23.70;99.90
21508;DHT22;10915;54.352;9.074;2023-07-13T15:49:35;23.70;99.90
21508;DHT22;10915;54.352;9.074;2023-07-13T15:52:29;23.70;99.90
21508;DHT22;10915;54.352;9.074;2023-07-13T15:55:02;23.60;99.90
21508;DHT22;10915;54.352;9.074;2023-07-13T15:57:30;23.40;99.90
21508;DHT22;10915;54.352;9.074;2023-07-13T15:59:56;23.40;99.90
21508;DHT22;10915;54.352;9.074;2023-07-13T16:02:22;23.20;99.90
21508;DHT22;10915;54.352;9.074;2023-07-13T16:04:50;23.00;99.90
21508;DHT22;10915;54.352;9.074;2023-07-13T16:07:17;22.90;99.90
21508;DHT22;10915;54.352;9.074;2023-07-13T16:09:44;22.90;99.90
21508;DHT22;10915;54.352;9.074;2023-07-13T16:12:13;22.90;99.90
21508;DHT22;10915;54.352;9.074;2023-07-13T16:14:45;22.80;99.90
21508;DHT22;10915;54.352;9.074;2023-07-13T16:56:05;22.10;99.90
21508;DHT22;10915;54.352;9.074;2023-07-13T16:58:33;21.90;99.90
21508;DHT22;10915;54.352;9.074;2023-07-13T17:01:00;21.80;99.90
21508;DHT22;10915;54.352;9.074;2023-07-13T17:03:29;21.70;99.90
21508;DHT22;10915;54.352;9.074;2023-07-13T17:05:57;21.60;99.90
21508;DHT22;10915;54.352;9.074;2023-07-13T17:08:29;21.60;99.90
21508;DHT22;10915;54.352;9.074;2023-07-13T17:10:57;21.40;99.90
21508;DHT22;10915;54.352;9.074;2023-07-13T17:13:23;21.50;99.90
21508;DHT22;10915;54.352;9.074;2023-07-13T17:15:51;21.60;99.90
21508;DHT22;10915;54.352;9.074;2023-07-13T17:18:23;21.70;99.90
21508;DHT22;10915;54.352;9.074;2023-07-13T17:20:50;21.60;99.90
21508;DHT22;10915;54.352;9.074;2023-07-13T17:23:21;21.50;99.90
21508;DHT22;10915;54.352;9.074;2023-07-13T17:25:48;21.30;99.90
21508;DHT22;10915;54.352;9.074;2023-07-13T17:28:14;21.20;99.90
21508;DHT22;10915;54.352;9.074;2023-07-13T17:30:43;21.20;99.90
21508;DHT22;10915;54.352;9.074;2023-07-13T17:33:37;21.30;99.90
21508;DHT22;10915;54.352;9.074;2023-07-13T17:36:20;21.30;99.90
21508;DHT22;10915;54.352;9.074;2023-07-13T17:39:20;21.40;99.90
21508;DHT22;10915;54.352;9.074;2023-07-13T17:41:51;21.40;99.90
21508;DHT22;10915;54.352;9.074;2023-07-13T17:44:42;21.30;99.90
21508;DHT22;10915;54.352;9.074;2023-07-13T17:50:45;21.00;99.90
21508;DHT22;10915;54.352;9.074;2023-07-13T17:53:30;21.00;99.90
21508;DHT22;10915;54.352;9.074;2023-07-13T17:56:34;21.10;99.90
21508;DHT22;10915;54.352;9.074;2023-07-13T18:00:07;21.10;99.90
21508;DHT22;10915;54.352;9.074;2023-07-13T18:02:32;21.00;99.90
21508;DHT22;10915;54.352;9.074;2023-07-13T18:05:03;20.80;99.90
21508;DHT22;10915;54.352;9.074;2023-07-13T18:14:20;20.50;99.90
21508;DHT22;10915;54.352;9.074;2023-07-13T18:17:09;20.50;99.90
21508;DHT22;10915;54.352;9.074;2023-07-13T18:19:51;20.50;99.90
21508;DHT22;10915;54.352;9.074;2023-07-13T18:22:26;20.40;99.90
21508;DHT22;10915;54.352;9.074;2023-07-13T18:24:56;20.30;99.90
21508;DHT22;10915;54.352;9.074;2023-07-13T18:27:30;20.10;99.90
21508;DHT22;10915;54.352;9.074;2023-07-13T18:30:40;20.00;99.90
21508;DHT22;10915;54.352;9.074;2023-07-13T18:34:17;19.80;99.90
21508;DHT22;10915;54.352;9.074;2023-07-13T18:36:58;19.60;99.90
21508;DHT22;10915;54.352;9.074;2023-07-13T18:39:24;19.50;99.90
21508;DHT22;10915;54.352;9.074;2023-07-13T18:41:49;19.50;99.90
21508;DHT22;10915;54.352;9.074;2023-07-13T18:44:20;19.40;99.90
21508;DHT22;10915;54.352;9.074;2023-07-13T18:46:49;19.30;99.90
21508;DHT22;10915;54.352;9.074;2023-07-13T18:49:14;19.30;99.90
21508;DHT22;10915;54.352;9.074;2023-07-13T18:51:43;19.20;99.90
21508;DHT22;10915;54.352;9.074;2023-07-13T18:54:29;19.20;99.90
21508;DHT22;10915;54.352;9.074;2023-07-13T18:56:58;19.10;99.90
21508;DHT22;10915;54.352;9.074;2023-07-13T18:59:28;19.10;99.90
21508;DHT22;10915;54.352;9.074;2023-07-13T19:01:56;19.00;99.90
21508;DHT22;10915;54.352;9.074;2023-07-13T19:04:34;19.00;99.90
21508;DHT22;10915;54.352;9.074;2023-07-13T19:07:00;18.90;99.90
21508;DHT22;10915;54.352;9.074;2023-07-13T19:09:33;18.90;99.90
21508;DHT22;10915;54.352;9.074;2023-07-13T19:12:02;18.80;99.90
21508;DHT22;10915;54.352;9.074;2023-07-13T19:14:33;18.80;99.90
21508;DHT22;10915;54.352;9.074;2023-07-13T19:16:58;18.80;99.90
21508;DHT22;10915;54.352;9.074;2023-07-13T19:19:25;18.80;99.90
21508;DHT22;10915;54.352;9.074;2023-07-13T19:22:18;18.80;99.90
21508;DHT22;10915;54.352;9.074;2023-07-13T19:24:52;18.80;99.90
21508;DHT22;10915;54.352;9.074;2023-07-13T19:27:21;18.80;99.90
21508;DHT22;10915;54.352;9.074;2023-07-13T19:30:14;18.80;99.90
21508;DHT22;10915;54.352;9.074;2023-07-13T19:32:44;18.70;99.90
21508;DHT22;10915;54.352;9.074;2023-07-13T19:35:10;18.70;99.90
21508;DHT22;10915;54.352;9.074;2023-07-13T19:37:46;18.60;99.90
21508;DHT22;10915;54.352;9.074;2023-07-13T19:43:29;18.50;99.90
21508;DHT22;10915;54.352;9.074;2023-07-13T19:46:04;18.50;99.90
21508;DHT22;10915;54.352;9.074;2023-07-13T19:48:29;18.40;99.90
21508;DHT22;10915;54.352;9.074;2023-07-13T19:50:55;18.40;99.90
21508;DHT22;10915;54.352;9.074;2023-07-13T19:53:21;18.30;99.90
21508;DHT22;10915;54.352;9.074;2023-07-13T19:55:54;18.30;99.90
21508;DHT22;10915;54.352;9.074;2023-07-13T19:58:20;18.30;99.90
21508;DHT22;10915;54.352;9.074;2023-07-13T20:00:52;18.30;99.90
21508;DHT22;10915;54.352;9.074;2023-07-13T20:03:21;18.30;99.90
21508;DHT22;10915;54.352;9.074;2023-07-13T20:08:56;18.30;99.90
21508;DHT22;10915;54.352;9.074;2023-07-13T20:27:10;18.10;99.90
21508;DHT22;10915;54.352;9.074;2023-07-13T20:29:36;18.10;99.90
21508;DHT22;10915;54.352;9.074;2023-07-13T20:32:02;18.00;99.90
21508;DHT22;10915;54.352;9.074;2023-07-13T20:34:30;18.00;99.90
21508;DHT22;10915;54.352;9.074;2023-07-13T20:36:58;18.00;99.90
21508;DHT22;10915;54.352;9.074;2023-07-13T20:39:24;18.00;99.90
21508;DHT22;10915;54.352;9.074;2023-07-13T20:41:50;17.90;99.90
21508;DHT22;10915;54.352;9.074;2023-07-13T20:44:17;17.90;99.90
21508;DHT22;10915;54.352;9.074;2023-07-13T20:46:43;17.80;99.90
21508;DHT22;10915;54.352;9.074;2023-07-13T20:49:10;17.80;99.90
21508;DHT22;10915;54.352;9.074;2023-07-13T20:51:37;17.80;99.90
21508;DHT22;10915;54.352;9.074;2023-07-13T20:54:04;17.70;99.90
21508;DHT22;10915;54.352;9.074;2023-07-13T20:56:29;17.70;99.90